createdAt,value
2023-02-05T00:00:07.745Z,102442.69
2023-02-05T00:01:09.169Z,102437.13
2023-02-05T00:02:10.784Z,102436.06
2023-02-05T00:03:12.428Z,102441.63
2023-02-05T00:04:13.903Z,102436.25
2023-02-05T00:05:15.345Z,102439.03
2023-02-05T00:06:16.832Z,102439.03
2023-02-05T00:07:18.337Z,102441.63
2023-02-05T00:08:19.824Z,102439.69
2023-02-05T00:09:21.284Z,102442.47
2023-02-05T00:10:22.838Z,102438.66
2023-02-05T00:11:24.417Z,102437.78
2023-02-05T00:12:25.940Z,102434.34
2023-02-05T00:13:27.465Z,102438.84
2023-02-05T00:14:29.017Z,102441.63
2023-02-05T00:15:30.567Z,102439.25
2023-02-05T00:16:32.452Z,102431.09
2023-02-05T00:17:34.897Z,102440.28
2023-02-05T00:18:37.503Z,102440.50
2023-02-05T00:19:38.986Z,102446.22
2023-02-05T00:20:40.455Z,102439.13
2023-02-05T00:21:41.909Z,102437.22
2023-02-05T00:22:43.425Z,102433.56
2023-02-05T00:23:44.942Z,102434.38
2023-02-05T00:24:46.436Z,102437.13
2023-02-05T00:25:47.952Z,102440.97
2023-02-05T00:26:49.487Z,102431.94
2023-02-05T00:27:50.984Z,102443.06
2023-02-05T00:28:54.284Z,102439.59
2023-02-05T00:29:55.808Z,102429.75
2023-02-05T00:30:57.392Z,102431.47
2023-02-05T00:31:58.981Z,102428.91
2023-02-05T00:33:00.461Z,102434.44
2023-02-05T00:34:02.882Z,102429.94
2023-02-05T00:35:04.558Z,102427.19
2023-02-05T00:36:06.266Z,102431.00
2023-02-05T00:37:07.798Z,102429.69
2023-02-05T00:38:09.365Z,102430.91
2023-02-05T00:39:11.473Z,102424.47
2023-02-05T00:40:13.481Z,102418.47
2023-02-05T00:41:16.169Z,102419.31
2023-02-05T00:42:17.720Z,102419.31
2023-02-05T00:43:19.194Z,102424.88
2023-02-05T00:44:20.748Z,102421.91
2023-02-05T00:45:22.261Z,102421.03
2023-02-05T00:46:23.914Z,102420.00
2023-02-05T00:47:25.598Z,102424.47
2023-02-05T00:48:27.105Z,102424.47
2023-02-05T00:49:28.654Z,102419.78
2023-02-05T00:50:30.147Z,102419.72
2023-02-05T00:51:31.622Z,102424.69
2023-02-05T00:52:33.772Z,102421.31
2023-02-05T00:53:35.296Z,102418.06
2023-02-05T00:54:36.817Z,102424.47
2023-02-05T00:55:38.298Z,102418.94
2023-02-05T00:56:39.772Z,102421.03
2023-02-05T00:57:41.296Z,102423.16
2023-02-05T00:58:47.440Z,102421.03
2023-02-05T00:59:48.929Z,102417.88
2023-02-05T01:00:50.639Z,102409.34
2023-02-05T01:01:52.161Z,102421.97
2023-02-05T01:02:55.239Z,102413.50
2023-02-05T01:03:56.743Z,102411.38
2023-02-05T01:04:58.211Z,102401.81
2023-02-05T01:06:00.126Z,102401.81
2023-02-05T01:07:01.843Z,102401.63
2023-02-05T01:08:03.453Z,102402.94
2023-02-05T01:09:05.046Z,102398.25
2023-02-05T01:10:06.741Z,102405.19
2023-02-05T01:11:09.487Z,102409.47
2023-02-05T01:12:11.139Z,102407.38
2023-02-05T01:13:12.685Z,102413.38
2023-02-05T01:14:14.161Z,102408.53
2023-02-05T01:15:15.690Z,102404.69
2023-02-05T01:16:17.303Z,102397.91
2023-02-05T01:17:18.878Z,102391.09
2023-02-05T01:18:20.345Z,102395.78
2023-02-05T01:19:21.884Z,102398.75
2023-02-05T01:20:23.915Z,102395.31
2023-02-05T01:21:25.378Z,102395.13
2023-02-05T01:22:26.927Z,102395.31
2023-02-05T01:23:28.397Z,102397.69
2023-02-05T01:24:29.900Z,102388.31
2023-02-05T01:25:31.690Z,102387.94
2023-02-05T01:26:33.312Z,102384.75
2023-02-05T01:27:34.940Z,102387.16
2023-02-05T01:28:36.486Z,102392.31
2023-02-05T01:29:37.945Z,102381.22
2023-02-05T01:30:39.608Z,102379.09
2023-02-05T01:31:41.319Z,102385.91
2023-02-05T01:32:42.894Z,102379.09
2023-02-05T01:33:44.413Z,102372.09
2023-02-05T01:34:45.940Z,102375.56
2023-02-05T01:35:47.636Z,102377.50
2023-02-05T01:36:49.121Z,102375.56
2023-02-05T01:37:50.644Z,102371.53
2023-02-05T01:38:54.279Z,102383.50
2023-02-05T01:39:55.853Z,102377.94
2023-02-05T01:40:59.925Z,102376.03
2023-02-05T01:42:01.405Z,102383.09
2023-02-05T01:43:02.948Z,102376.53
2023-02-05T01:44:05.060Z,102370.78
2023-02-05T01:45:21.829Z,102379.75
2023-02-05T01:46:26.998Z,102360.16
2023-02-05T01:47:28.677Z,102373.66
2023-02-05T01:48:32.652Z,102373.44
2023-02-05T01:49:35.666Z,102374.97
2023-02-05T01:50:37.252Z,102369.22
2023-02-05T01:51:38.787Z,102373.50
2023-02-05T01:52:40.436Z,102370.56
2023-02-05T01:53:41.983Z,102376.13
2023-02-05T01:54:44.258Z,102369.31
2023-02-05T01:55:48.236Z,102371.03
2023-02-05T01:56:51.256Z,102354.34
2023-02-05T01:57:52.792Z,102357.78
2023-02-05T01:58:55.684Z,102353.28
2023-02-05T01:59:57.226Z,102346.69
2023-02-05T02:00:58.769Z,102342.84
2023-02-05T02:02:00.920Z,102342.84
2023-02-05T02:03:02.490Z,102337.28
2023-02-05T02:04:04.746Z,102340.66
2023-02-05T02:05:08.342Z,102331.28
2023-02-05T02:06:09.893Z,102334.25
2023-02-05T02:07:12.332Z,102335.97
2023-02-05T02:08:13.897Z,102332.03
2023-02-05T02:09:15.452Z,102337.13
2023-02-05T02:10:17.742Z,102331.19
2023-02-05T02:11:19.870Z,102318.09
2023-02-05T02:12:22.604Z,102329.22
2023-02-05T02:13:24.114Z,102330.63
2023-02-05T02:14:25.660Z,102330.47
2023-02-05T02:15:27.161Z,102339.66
2023-02-05T02:16:29.024Z,102340.53
2023-02-05T02:17:30.930Z,102334.97
2023-02-05T02:18:32.798Z,102334.09
2023-02-05T02:19:34.333Z,102334.56
2023-02-05T02:20:35.834Z,102334.16
2023-02-05T02:21:52.557Z,102326.50
2023-02-05T02:23:32.489Z,102327.56
2023-02-05T02:24:33.968Z,102330.41
2023-02-05T02:25:47.743Z,102331.47
2023-02-05T02:27:07.671Z,102328.69
2023-02-05T02:28:10.103Z,102333.84
2023-02-05T02:29:14.494Z,102316.66
2023-02-05T02:30:17.642Z,102337.09
2023-02-05T02:31:22.186Z,102330.94
2023-02-05T02:32:26.566Z,102329.91
2023-02-05T02:33:37.029Z,102333.31
2023-02-05T02:34:42.389Z,102321.56
2023-02-05T02:35:46.528Z,102316.47
2023-02-05T02:37:07.062Z,102319.03
2023-02-05T02:38:08.526Z,102313.06
2023-02-05T02:39:33.951Z,102314.78
2023-02-05T02:40:42.694Z,102310.94
2023-02-05T02:41:52.493Z,102305.88
2023-02-05T02:42:57.252Z,102302.03
2023-02-05T02:43:59.281Z,102299.06
2023-02-05T02:45:01.326Z,102293.28
2023-02-05T02:46:28.759Z,102291.78
2023-02-05T02:47:36.043Z,102300.53
2023-02-05T02:48:38.152Z,102298.19
2023-02-05T02:49:41.732Z,102290.50
2023-02-05T02:50:44.621Z,102287.53
2023-02-05T02:51:46.429Z,102285.81
2023-02-05T02:52:47.987Z,102283.84
2023-02-05T02:53:50.019Z,102279.16
2023-02-05T02:54:52.738Z,102279.81
2023-02-05T02:55:55.326Z,102281.72
2023-02-05T02:56:56.833Z,102287.94
2023-02-05T02:57:58.313Z,102286.66
2023-02-05T02:59:01.175Z,102283.22
2023-02-05T03:00:03.810Z,102279.59
2023-02-05T03:01:05.827Z,102289.25
2023-02-05T03:02:07.341Z,102289.72
2023-02-05T03:03:08.853Z,102282.03
2023-02-05T03:04:15.202Z,102283.75
2023-02-05T03:05:17.728Z,102273.50
2023-02-05T03:06:20.100Z,102282.50
2023-02-05T03:07:24.499Z,102275.66
2023-02-05T03:08:26.214Z,102277.38
2023-02-05T03:09:32.258Z,102275.66
2023-02-05T03:10:40.997Z,102265.81
2023-02-05T03:11:42.505Z,102266.66
2023-02-05T03:12:44.644Z,102258.09
2023-02-05T03:13:46.590Z,102251.66
2023-02-05T03:14:48.565Z,102260.00
2023-02-05T03:15:50.602Z,102260.66
2023-02-05T03:16:52.325Z,102258.75
2023-02-05T03:17:54.079Z,102260.16
2023-02-05T03:18:55.555Z,102264.19
2023-02-05T03:20:02.442Z,102264.53
2023-02-05T03:21:05.577Z,102263.25
2023-02-05T03:22:07.124Z,102260.06
2023-02-05T03:23:08.628Z,102253.66
2023-02-05T03:24:10.148Z,102262.16
2023-02-05T03:25:11.713Z,102264.72
2023-02-05T03:26:24.507Z,102262.19
2023-02-05T03:27:27.681Z,102263.06
2023-02-05T03:28:29.949Z,102258.34
2023-02-05T03:29:32.444Z,102255.78
2023-02-05T03:31:04.870Z,102261.34
2023-02-05T03:32:10.432Z,102260.56
2023-02-05T03:33:11.914Z,102256.31
2023-02-05T03:34:21.417Z,102264.22
2023-02-05T03:35:22.917Z,102265.94
2023-02-05T03:36:35.283Z,102274.94
2023-02-05T03:37:55.883Z,102279.84
2023-02-05T03:38:57.398Z,102278.97
2023-02-05T03:40:01.883Z,102269.59
2023-02-05T03:41:19.600Z,102265.75
2023-02-05T03:42:21.567Z,102265.38
2023-02-05T03:43:32.131Z,102270.72
2023-02-05T03:44:59.460Z,102264.50
2023-02-05T03:46:02.741Z,102266.22
2023-02-05T03:47:27.725Z,102250.19
2023-02-05T03:48:31.846Z,102259.31
2023-02-05T03:49:33.290Z,102249.53
2023-02-05T03:50:55.386Z,102251.25
2023-02-05T03:52:07.215Z,102251.50
2023-02-05T03:53:12.314Z,102257.47
2023-02-05T03:54:28.738Z,102260.25
2023-02-05T03:55:31.826Z,102254.28
2023-02-05T03:56:37.446Z,102256.41
2023-02-05T03:57:40.425Z,102255.09
2023-02-05T03:58:43.080Z,102251.84
2023-02-05T03:59:44.589Z,102249.69
2023-02-05T04:00:46.463Z,102253.75
2023-02-05T04:01:48.558Z,102254.34
2023-02-05T04:02:50.141Z,102253.94
2023-02-05T04:03:55.043Z,102253.28
2023-02-05T04:04:57.677Z,102250.75
2023-02-05T04:05:59.406Z,102250.88
2023-02-05T04:07:01.495Z,102245.28
2023-02-05T04:08:03.105Z,102246.78
2023-02-05T04:09:10.405Z,102253.28
2023-02-05T04:10:11.968Z,102262.94
2023-02-05T04:11:14.599Z,102268.69
2023-02-05T04:12:18.122Z,102271.47
2023-02-05T04:13:20.246Z,102273.38
2023-02-05T04:14:21.773Z,102266.56
2023-02-05T04:15:23.280Z,102270.84
2023-02-05T04:16:28.707Z,102267.22
2023-02-05T04:17:31.997Z,102268.72
2023-02-05T04:18:33.552Z,102268.72
2023-02-05T04:19:35.612Z,102273.91
2023-02-05T04:20:37.650Z,102276.69
2023-02-05T04:21:40.846Z,102273.63
2023-02-05T04:22:42.376Z,102273.84
2023-02-05T04:23:43.897Z,102269.78
2023-02-05T04:24:46.342Z,102282.41
2023-02-05T04:25:47.908Z,102273.91
2023-02-05T04:26:53.221Z,102273.91
2023-02-05T04:27:55.614Z,102284.63
2023-02-05T04:28:57.871Z,102273.91
2023-02-05T04:29:59.525Z,102265.69
2023-02-05T04:31:01.253Z,102266.03
2023-02-05T04:32:03.712Z,102271.56
2023-02-05T04:33:05.261Z,102265.50
2023-02-05T04:34:06.809Z,102272.41
2023-02-05T04:35:09.629Z,102272.47
2023-02-05T04:36:11.190Z,102273.06
2023-02-05T04:37:13.086Z,102269.88
2023-02-05T04:38:14.593Z,102272.03
2023-02-05T04:39:16.170Z,102272.03
2023-02-05T04:40:17.797Z,102276.50
2023-02-05T04:41:19.254Z,102269.44
2023-02-05T04:42:20.753Z,102268.56
2023-02-05T04:43:22.294Z,102270.28
2023-02-05T04:44:23.912Z,102268.50
2023-02-05T04:45:30.833Z,102269.34
2023-02-05T04:46:32.428Z,102265.31
2023-02-05T04:47:34.041Z,102258.97
2023-02-05T04:48:35.594Z,102257.06
2023-02-05T04:49:37.061Z,102263.06
2023-02-05T04:50:38.853Z,102260.75
2023-02-05T04:51:40.323Z,102264.19
2023-02-05T04:52:41.766Z,102262.28
2023-02-05T04:53:43.340Z,102260.56
2023-02-05T04:54:44.985Z,102264.00
2023-02-05T04:55:46.466Z,102257.56
2023-02-05T04:56:48.041Z,102254.59
2023-02-05T04:57:51.342Z,102250.34
2023-02-05T04:58:54.086Z,102250.34
2023-02-05T04:59:55.565Z,102247.34
2023-02-05T05:00:57.047Z,102251.66
2023-02-05T05:02:01.555Z,102259.31
2023-02-05T05:03:03.059Z,102258.94
2023-02-05T05:04:04.535Z,102254.44
2023-02-05T05:05:07.042Z,102258.53
2023-02-05T05:06:08.531Z,102261.97
2023-02-05T05:07:10.329Z,102265.41
2023-02-05T05:08:11.846Z,102263.69
2023-02-05T05:09:13.410Z,102257.28
2023-02-05T05:10:14.906Z,102250.41
2023-02-05T05:11:17.330Z,102251.16
2023-02-05T05:12:43.792Z,102249.81
2023-02-05T05:13:45.374Z,102242.94
2023-02-05T05:14:47.062Z,102238.03
2023-02-05T05:15:54.835Z,102236.13
2023-02-05T05:16:56.413Z,102228.06
2023-02-05T05:17:57.890Z,102244.75
2023-02-05T05:18:59.355Z,102250.66
2023-02-05T05:20:00.926Z,102256.13
2023-02-05T05:21:02.523Z,102263.88
2023-02-05T05:22:04.025Z,102266.91
2023-02-05T05:23:05.491Z,102266.97
2023-02-05T05:24:07.078Z,102262.94
2023-02-05T05:25:08.664Z,102262.72
2023-02-05T05:26:11.233Z,102268.72
2023-02-05T05:27:12.750Z,102270.44
2023-02-05T05:28:14.393Z,102267.50
2023-02-05T05:29:15.947Z,102264.31
2023-02-05T05:30:17.395Z,102266.22
2023-02-05T05:31:19.976Z,102263.44
2023-02-05T05:32:21.555Z,102266.22
2023-02-05T05:33:23.097Z,102267.66
2023-02-05T05:34:24.567Z,102262.94
2023-02-05T05:35:26.122Z,102265.28
2023-02-05T05:36:27.634Z,102259.69
2023-02-05T05:37:29.157Z,102258.53
2023-02-05T05:38:30.662Z,102259.09
2023-02-05T05:39:50.525Z,102270.22
2023-02-05T05:41:10.611Z,102245.69
2023-02-05T05:42:30.954Z,102254.72
2023-02-05T05:43:47.897Z,102243.88
2023-02-05T05:44:52.078Z,102253.72
2023-02-05T05:45:53.640Z,102259.72
2023-02-05T05:46:55.153Z,102254.19
2023-02-05T05:47:56.651Z,102256.75
2023-02-05T05:49:00.185Z,102257.63
2023-02-05T05:50:01.660Z,102259.31
2023-02-05T05:51:03.589Z,102254.44
2023-02-05T05:52:05.165Z,102257.88
2023-02-05T05:53:06.646Z,102256.81
2023-02-05T05:54:08.157Z,102255.47
2023-02-05T05:55:09.626Z,102264.50
2023-02-05T05:56:11.205Z,102264.50
2023-02-05T05:57:12.652Z,102257.88
2023-02-05T05:58:14.089Z,102251.06
2023-02-05T05:59:15.642Z,102245.28
2023-02-05T06:00:17.190Z,102252.31
2023-02-05T06:01:19.664Z,102249.28
2023-02-05T06:02:23.022Z,102252.06
2023-02-05T06:03:24.542Z,102241.78
2023-02-05T06:04:26.071Z,102250.75
2023-02-05T06:05:27.628Z,102247.72
2023-02-05T06:06:29.097Z,102252.59
2023-02-05T06:07:30.541Z,102255.84
2023-02-05T06:08:32.347Z,102253.28
2023-02-05T06:09:33.899Z,102252.59
2023-02-05T06:10:35.426Z,102254.13
2023-02-05T06:11:37.026Z,102265.69
2023-02-05T06:12:38.486Z,102260.56
2023-02-05T06:13:41.761Z,102262.59
2023-02-05T06:14:43.329Z,102260.28
2023-02-05T06:15:44.792Z,102250.63
2023-02-05T06:16:46.252Z,102261.00
2023-02-05T06:17:47.807Z,102264.88
2023-02-05T06:18:49.284Z,102266.22
2023-02-05T06:19:50.806Z,102268.78
2023-02-05T06:20:52.302Z,102263.69
2023-02-05T06:21:53.766Z,102259.84
2023-02-05T06:22:55.274Z,102248.31
2023-02-05T06:23:56.707Z,102257.34
2023-02-05T06:24:58.318Z,102267.19
2023-02-05T06:25:59.782Z,102268.91
2023-02-05T06:27:01.388Z,102272.34
2023-02-05T06:28:02.976Z,102268.69
2023-02-05T06:29:04.555Z,102270.63
2023-02-05T06:30:06.315Z,102265.25
2023-02-05T06:31:07.928Z,102259.06
2023-02-05T06:32:09.415Z,102263.75
2023-02-05T06:33:12.701Z,102257.34
2023-02-05T06:34:14.202Z,102256.00
2023-02-05T06:35:15.769Z,102249.53
2023-02-05T06:36:17.225Z,102254.03
2023-02-05T06:37:18.721Z,102247.84
2023-02-05T06:38:20.220Z,102234.06
2023-02-05T06:39:23.741Z,102250.59
2023-02-05T06:40:28.093Z,102245.06
2023-02-05T06:41:29.575Z,102238.44
2023-02-05T06:42:31.093Z,102241.84
2023-02-05T06:43:32.559Z,102245.28
2023-02-05T06:44:34.128Z,102237.59
2023-02-05T06:45:36.108Z,102241.41
2023-02-05T06:46:37.737Z,102238.63
2023-02-05T06:47:39.312Z,102233.25
2023-02-05T06:48:40.782Z,102230.69
2023-02-05T06:49:42.250Z,102225.13
2023-02-05T06:50:43.736Z,102231.44
2023-02-05T06:51:45.215Z,102224.44
2023-02-05T06:52:46.727Z,102222.72
2023-02-05T06:53:48.184Z,102227.22
2023-02-05T06:54:49.700Z,102225.94
2023-02-05T06:55:51.138Z,102224.03
2023-02-05T06:56:52.614Z,102231.19
2023-02-05T06:57:54.093Z,102233.44
2023-02-05T06:58:55.558Z,102232.88
2023-02-05T06:59:57.045Z,102233.50
2023-02-05T07:00:58.700Z,102226.03
2023-02-05T07:02:00.311Z,102230.13
2023-02-05T07:03:01.860Z,102210.81
2023-02-05T07:04:03.398Z,102229.91
2023-02-05T07:05:04.872Z,102236.34
2023-02-05T07:06:06.508Z,102236.59
2023-02-05T07:07:08.018Z,102238.66
2023-02-05T07:08:09.464Z,102234.94
2023-02-05T07:09:10.970Z,102233.03
2023-02-05T07:10:12.451Z,102235.16
2023-02-05T07:11:13.914Z,102229.19
2023-02-05T07:12:15.413Z,102235.44
2023-02-05T07:13:16.884Z,102232.66
2023-02-05T07:14:19.130Z,102243.34
2023-02-05T07:15:20.582Z,102228.00
2023-02-05T07:16:22.108Z,102239.75
2023-02-05T07:17:23.696Z,102237.47
2023-02-05T07:18:25.149Z,102227.09
2023-02-05T07:19:26.742Z,102233.03
2023-02-05T07:20:28.256Z,102233.44
2023-02-05T07:21:29.729Z,102233.84
2023-02-05T07:22:31.269Z,102239.41
2023-02-05T07:23:32.724Z,102246.81
2023-02-05T07:24:34.190Z,102240.38
2023-02-05T07:25:38.358Z,102234.84
2023-02-05T07:26:40.807Z,102230.81
2023-02-05T07:27:42.371Z,102228.28
2023-02-05T07:28:44.006Z,102226.16
2023-02-05T07:29:45.503Z,102218.09
2023-02-05T07:30:47.905Z,102211.44
2023-02-05T07:31:49.992Z,102218.69
2023-02-05T07:32:51.456Z,102214.19
2023-02-05T07:33:52.900Z,102224.44
2023-02-05T07:34:54.388Z,102227.88
2023-02-05T07:35:55.893Z,102234.75
2023-02-05T07:36:57.412Z,102233.03
2023-02-05T07:37:59.282Z,102236.50
2023-02-05T07:39:00.741Z,102230.75
2023-02-05T07:40:02.926Z,102234.16
2023-02-05T07:41:04.888Z,102230.97
2023-02-05T07:42:06.368Z,102231.63
2023-02-05T07:43:16.645Z,102238.69
2023-02-05T07:44:18.100Z,102238.53
2023-02-05T07:45:19.568Z,102239.19
2023-02-05T07:46:21.185Z,102233.56
2023-02-05T07:47:22.717Z,102233.56
2023-02-05T07:48:24.607Z,102230.78
2023-02-05T07:49:26.170Z,102219.81
2023-02-05T07:50:27.611Z,102229.72
2023-02-05T07:51:29.900Z,102230.38
2023-02-05T07:52:31.510Z,102227.59
2023-02-05T07:53:32.961Z,102232.28
2023-02-05T07:54:34.427Z,102230.19
2023-02-05T07:55:36.176Z,102225.50
2023-02-05T07:56:37.887Z,102220.78
2023-02-05T07:57:39.427Z,102231.06
2023-02-05T07:58:41.081Z,102237.41
2023-02-05T07:59:42.782Z,102220.94
2023-02-05T08:00:44.233Z,102218.16
2023-02-05T08:01:45.764Z,102222.44
2023-02-05T08:02:47.374Z,102226.06
2023-02-05T08:03:48.833Z,102218.22
2023-02-05T08:04:50.288Z,102222.25
2023-02-05T08:05:51.797Z,102226.56
2023-02-05T08:06:53.621Z,102217.81
2023-02-05T08:07:55.063Z,102219.53
2023-02-05T08:08:57.063Z,102217.16
2023-02-05T08:09:58.575Z,102216.94
2023-02-05T08:11:03.976Z,102224.22
2023-02-05T08:12:05.737Z,102213.91
2023-02-05T08:13:07.192Z,102209.59
2023-02-05T08:14:08.680Z,102207.03
2023-02-05T08:15:10.325Z,102207.03
2023-02-05T08:16:12.428Z,102215.16
2023-02-05T08:17:13.910Z,102211.31
2023-02-05T08:18:15.362Z,102209.19
2023-02-05T08:19:17.826Z,102209.41
2023-02-05T08:20:19.735Z,102212.88
2023-02-05T08:21:21.906Z,102204.44
2023-02-05T08:22:23.446Z,102210.19
2023-02-05T08:23:24.901Z,102207.59
2023-02-05T08:24:26.453Z,102197.75
2023-02-05T08:25:28.021Z,102202.63
2023-02-05T08:26:29.484Z,102206.66
2023-02-05T08:27:31.799Z,102198.53
2023-02-05T08:28:33.393Z,102199.84
2023-02-05T08:29:34.874Z,102195.25
2023-02-05T08:30:36.406Z,102190.34
2023-02-05T08:31:38.764Z,102193.13
2023-02-05T08:32:40.300Z,102191.88
2023-02-05T08:33:41.850Z,102182.44
2023-02-05T08:34:43.546Z,102190.75
2023-02-05T08:35:45.008Z,102192.19
2023-02-05T08:36:46.464Z,102189.13
2023-02-05T08:37:48.019Z,102191.63
2023-02-05T08:38:49.615Z,102189.66
2023-02-05T08:39:51.096Z,102186.91
2023-02-05T08:40:52.586Z,102187.53
2023-02-05T08:41:56.694Z,102177.38
2023-02-05T08:43:00.294Z,102177.59
2023-02-05T08:44:01.810Z,102179.22
2023-02-05T08:45:03.503Z,102174.94
2023-02-05T08:46:05.254Z,102172.16
2023-02-05T08:47:06.737Z,102169.19
2023-02-05T08:48:08.279Z,102178.81
2023-02-05T08:49:09.747Z,102176.97
2023-02-05T08:50:11.238Z,102179.81
2023-02-05T08:51:13.061Z,102179.38
2023-02-05T08:52:14.524Z,102173.41
2023-02-05T08:53:16.006Z,102176.88
2023-02-05T08:54:17.525Z,102177.31
2023-02-05T08:55:19.065Z,102171.31
2023-02-05T08:56:20.632Z,102174.75
2023-02-05T08:57:22.134Z,102174.13
2023-02-05T08:58:23.800Z,102171.81
2023-02-05T08:59:25.288Z,102169.25
2023-02-05T09:00:26.767Z,102172.66
2023-02-05T09:01:28.310Z,102163.09
2023-02-05T09:02:32.061Z,102160.56
2023-02-05T09:03:33.737Z,102170.38
2023-02-05T09:04:35.214Z,102170.38
2023-02-05T09:05:36.831Z,102165.03
2023-02-05T09:06:38.373Z,102174.66
2023-02-05T09:07:39.938Z,102167.63
2023-02-05T09:08:41.453Z,102169.13
2023-02-05T09:09:43.002Z,102162.13
2023-02-05T09:10:44.761Z,102173.50
2023-02-05T09:11:46.834Z,102168.59
2023-02-05T09:12:48.791Z,102171.84
2023-02-05T09:13:50.252Z,102167.78
2023-02-05T09:14:51.816Z,102167.38
2023-02-05T09:15:53.290Z,102165.25
2023-02-05T09:16:54.771Z,102165.25
2023-02-05T09:17:56.320Z,102174.03
2023-02-05T09:18:57.928Z,102169.16
2023-02-05T09:19:59.493Z,102165.50
2023-02-05T09:21:01.099Z,102165.50
2023-02-05T09:22:02.624Z,102166.75
2023-02-05T09:23:04.220Z,102165.03
2023-02-05T09:24:05.729Z,102163.13
2023-02-05T09:25:07.442Z,102162.75
2023-02-05T09:26:09.362Z,102162.53
2023-02-05T09:27:14.269Z,102162.31
2023-02-05T09:28:15.851Z,102166.16
2023-02-05T09:29:17.392Z,102168.09
2023-02-05T09:30:18.974Z,102173.44
2023-02-05T09:31:20.694Z,102166.81
2023-02-05T09:32:22.220Z,102162.53
2023-02-05T09:33:23.779Z,102175.56
2023-02-05T09:34:25.245Z,102158.03
2023-02-05T09:35:26.772Z,102170.88
2023-02-05T09:36:28.246Z,102166.81
2023-02-05T09:37:29.722Z,102162.31
2023-02-05T09:38:31.216Z,102149.50
2023-02-05T09:41:01.249Z,102140.09
2023-02-05T09:42:08.555Z,102143.94
2023-02-05T09:43:28.619Z,102144.59
2023-02-05T09:44:48.749Z,102143.22
2023-02-05T09:45:50.230Z,102146.84
2023-02-05T09:47:07.123Z,102132.94
2023-02-05T09:48:12.749Z,102143.84
2023-02-05T09:49:16.997Z,102148.13
2023-02-05T09:50:21.375Z,102143.88
2023-02-05T09:51:43.385Z,102140.69
2023-02-05T09:52:47.732Z,102136.44
2023-02-05T09:53:51.713Z,102148.00
2023-02-05T09:54:54.837Z,102144.81
2023-02-05T09:55:56.371Z,102149.09
2023-02-05T09:56:59.232Z,102144.00
2023-02-05T09:58:01.119Z,102147.44
2023-02-05T09:59:02.781Z,102142.53
2023-02-05T10:00:22.920Z,102144.88
2023-02-05T10:01:41.609Z,102141.91
2023-02-05T10:02:58.084Z,102147.06
2023-02-05T10:04:01.017Z,102144.06
2023-02-05T10:05:02.537Z,102147.50
2023-02-05T10:06:04.034Z,102147.28
2023-02-05T10:07:08.629Z,102146.22
2023-02-05T10:08:21.707Z,102145.16
2023-02-05T10:09:31.885Z,102132.75
2023-02-05T10:10:36.183Z,102140.06
2023-02-05T10:11:42.220Z,102137.94
2023-02-05T10:12:52.452Z,102136.88
2023-02-05T10:14:03.263Z,102130.22
2023-02-05T10:15:04.799Z,102131.94
2023-02-05T10:16:23.362Z,102130.88
2023-02-05T10:17:36.945Z,102128.75
2023-02-05T10:18:44.592Z,102134.31
2023-02-05T10:19:49.704Z,102131.31
2023-02-05T10:20:52.865Z,102136.66
2023-02-05T10:22:03.516Z,102125.53
2023-02-05T10:23:14.113Z,102127.47
2023-02-05T10:24:34.953Z,102127.03
2023-02-05T10:25:59.641Z,102129.34
2023-02-05T10:27:09.978Z,102128.72
2023-02-05T10:28:17.607Z,102126.59
2023-02-05T10:29:19.122Z,102130.03
2023-02-05T10:30:20.730Z,102123.19
2023-02-05T10:31:28.078Z,102132.38
2023-02-05T10:32:35.352Z,102129.38
2023-02-05T10:33:45.872Z,102131.09
2023-02-05T10:34:47.353Z,102126.22
2023-02-05T10:36:06.902Z,102127.72
2023-02-05T10:37:19.044Z,102116.81
2023-02-05T10:38:23.878Z,102124.09
2023-02-05T10:39:25.887Z,102118.50
2023-02-05T10:40:35.190Z,102125.78
2023-02-05T10:41:40.168Z,102114.44
2023-02-05T10:42:45.380Z,102113.81
2023-02-05T10:43:48.865Z,102110.16
2023-02-05T10:44:50.448Z,102113.81
2023-02-05T10:45:52.141Z,102098.63
2023-02-05T10:46:55.218Z,102103.13
2023-02-05T10:48:00.018Z,102103.13
2023-02-05T10:49:04.531Z,102100.97
2023-02-05T10:50:26.343Z,102095.41
2023-02-05T10:51:29.342Z,102093.50
2023-02-05T10:52:31.017Z,102094.13
2023-02-05T10:53:32.611Z,102095.66
2023-02-05T10:54:34.150Z,102086.00
2023-02-05T10:55:36.489Z,102086.63
2023-02-05T10:56:38.100Z,102090.06
2023-02-05T10:57:39.782Z,102091.56
2023-02-05T10:58:46.378Z,102089.41
2023-02-05T10:59:54.039Z,102080.03
2023-02-05T11:00:55.534Z,102079.34
2023-02-05T11:01:57.874Z,102080.84
2023-02-05T11:02:59.786Z,102079.56
2023-02-05T11:04:03.415Z,102087.66
2023-02-05T11:05:15.484Z,102087.44
2023-02-05T11:06:16.922Z,102078.47
2023-02-05T11:07:35.594Z,102076.16
2023-02-05T11:08:38.249Z,102070.59
2023-02-05T11:09:39.813Z,102071.00
2023-02-05T11:10:41.293Z,102072.72
2023-02-05T11:11:43.306Z,102065.88
2023-02-05T11:12:45.829Z,102069.31
2023-02-05T11:14:13.513Z,102068.22
2023-02-05T11:15:27.767Z,102065.91
2023-02-05T11:16:38.905Z,102062.06
2023-02-05T11:17:40.428Z,102066.34
2023-02-05T11:18:45.952Z,102056.06
2023-02-05T11:19:54.313Z,102058.22
2023-02-05T11:20:59.677Z,102055.41
2023-02-05T11:22:02.040Z,102051.34
2023-02-05T11:23:17.754Z,102053.91
2023-02-05T11:24:39.528Z,102063.72
2023-02-05T11:25:56.788Z,102067.75
2023-02-05T11:27:10.368Z,102058.09
2023-02-05T11:28:14.117Z,102052.97
2023-02-05T11:29:21.568Z,102057.69
2023-02-05T11:30:50.397Z,102047.00
2023-02-05T11:31:52.463Z,102046.56
2023-02-05T11:32:54.117Z,102033.31
2023-02-05T11:34:20.480Z,102051.28
2023-02-05T11:35:32.030Z,102052.97
2023-02-05T11:36:33.519Z,102047.00
2023-02-05T11:37:36.584Z,102053.19
2023-02-05T11:38:47.543Z,102047.84
2023-02-05T11:39:51.551Z,102043.16
2023-02-05T11:40:53.064Z,102044.25
2023-02-05T11:41:56.427Z,102044.88
2023-02-05T11:43:07.637Z,102040.81
2023-02-05T11:44:12.982Z,102050.25
2023-02-05T11:45:16.145Z,102037.00
2023-02-05T11:46:21.716Z,102040.59
2023-02-05T11:47:35.951Z,102036.97
2023-02-05T11:48:38.624Z,102031.66
2023-02-05T11:49:40.638Z,102036.53
2023-02-05T11:50:43.653Z,102042.56
2023-02-05T11:51:45.885Z,102036.34
2023-02-05T11:52:47.381Z,102042.34
2023-02-05T11:53:50.759Z,102043.88
2023-02-05T11:54:52.509Z,102039.81
2023-02-05T11:55:55.128Z,102035.53
2023-02-05T11:57:22.626Z,102037.66
2023-02-05T11:58:36.088Z,102045.56
2023-02-05T11:59:39.267Z,102037.25
2023-02-05T12:00:48.506Z,102027.81
2023-02-05T12:01:50.072Z,102028.03
2023-02-05T12:02:54.087Z,102035.75
2023-02-05T12:04:14.802Z,102035.94
2023-02-05T12:05:16.278Z,102028.88
2023-02-05T12:06:18.579Z,102030.59
2023-02-05T12:07:20.147Z,102037.03
2023-02-05T12:08:32.561Z,102023.53